sensor_id;sensor_type;location;lat;lon;timestamp;temperature;humidity
16867;DHT22;8550;52.596;13.320;2023-04-24T00:04:13;11.50;99.90
16867;DHT22;8550;52.596;13.320;2023-04-24T00:09:18;11.60;99.90
16867;DHT22;8550;52.596;13.320;2023-04-24T00:14:20;11.50;99.90
16867;DHT22;8550;52.596;13.320;2023-04-24T00:19:22;11.50;99.90
16867;DHT22;8550;52.596;13.320;2023-04-24T00:24:26;11.50;99.90
16867;DHT22;8550;52.596;13.320;2023-04-24T00:29:28;11.50;99.90
16867;DHT22;8550;52.596;13.320;2023-04-24T00:34:30;11.40;99.90
16867;DHT22;8550;52.596;13.320;2023-04-24T00:39:34;11.40;99.90
16867;DHT22;8550;52.596;13.320;2023-04-24T00:44:36;11.50;99.90
16867;DHT22;8550;52.596;13.320;2023-04-24T00:49:38;11.50;99.90
16867;DHT22;8550;52.596;13.320;2023-04-24T00:54:42;11.40;99.90
16867;DHT22;8550;52.596;13.320;2023-04-24T00:59:44;11.40;99.90
16867;DHT22;8550;52.596;13.320;2023-04-24T01:04:46;11.40;99.90
16867;DHT22;8550;52.596;13.320;2023-04-24T01:09:49;11.50;99.90
16867;DHT22;8550;52.596;13.320;2023-04-24T01:14:52;11.50;99.90
16867;DHT22;8550;52.596;13.320;2023-04-24T01:19:54;11.70;99.90
16867;DHT22;8550;52.596;13.320;2023-04-24T01:24:58;11.90;99.90
16867;DHT22;8550;52.596;13.320;2023-04-24T01:30:00;12.00;99.90
16867;DHT22;8550;52.596;13.320;2023-04-24T01:35:07;12.10;99.90
16867;DHT22;8550;52.596;13.320;2023-04-24T01:40:11;12.20;99.90
16867;DHT22;8550;52.596;13.320;2023-04-24T01:45:14;12.30;99.90
16867;DHT22;8550;52.596;13.320;2023-04-24T01:50:16;12.50;99.90
16867;DHT22;8550;52.596;13.320;2023-04-24T01:55:20;12.60;99.90
16867;DHT22;8550;52.596;13.320;2023-04-24T02:00:22;12.80;99.90
16867;DHT22;8550;52.596;13.320;2023-04-24T02:05:24;12.70;99.90
16867;DHT22;8550;52.596;13.320;2023-04-24T02:10:28;12.60;99.90
16867;DHT22;8550;52.596;13.320;2023-04-24T02:15:30;12.50;99.90
16867;DHT22;8550;52.596;13.320;2023-04-24T02:20:32;12.40;99.90
16867;DHT22;8550;52.596;13.320;2023-04-24T02:25:36;12.30;99.90
16867;DHT22;8550;52.596;13.320;2023-04-24T02:30:37;12.20;99.90
16867;DHT22;8550;52.596;13.320;2023-04-24T02:35:39;12.20;99.90
16867;DHT22;8550;52.596;13.320;2023-04-24T02:40:43;12.20;99.90
16867;DHT22;8550;52.596;13.320;2023-04-24T02:45:44;12.30;99.90
16867;DHT22;8550;52.596;13.320;2023-04-24T02:50:46;12.20;99.90
16867;DHT22;8550;52.596;13.320;2023-04-24T02:55:50;12.20;99.90
16867;DHT22;8550;52.596;13.320;2023-04-24T03:00:53;12.20;99.90
16867;DHT22;8550;52.596;13.320;2023-04-24T03:05:56;12.20;99.90
16867;DHT22;8550;52.596;13.320;2023-04-24T03:11:00;12.20;99.90
16867;DHT22;8550;52.596;13.320;2023-04-24T03:16:02;12.30;99.90
16867;DHT22;8550;52.596;13.320;2023-04-24T03:21:04;12.30;99.90
16867;DHT22;8550;52.596;13.320;2023-04-24T03:26:08;12.40;99.90
16867;DHT22;8550;52.596;13.320;2023-04-24T03:31:09;12.50;99.90
16867;DHT22;8550;52.596;13.320;2023-04-24T03:36:11;12.70;99.90
16867;DHT22;8550;52.596;13.320;2023-04-24T03:41:15;12.70;99.90
16867;DHT22;8550;52.596;13.320;2023-04-24T03:46:17;12.70;99.90
16867;DHT22;8550;52.596;13.320;2023-04-24T03:51:19;12.70;99.90
16867;DHT22;8550;52.596;13.320;2023-04-24T03:56:22;12.70;99.90
16867;DHT22;8550;52.596;13.320;2023-04-24T04:01:24;12.70;99.90
16867;DHT22;8550;52.596;13.320;2023-04-24T04:06:26;12.80;99.90
16867;DHT22;8550;52.596;13.320;2023-04-24T04:11:30;12.80;99.90
16867;DHT22;8550;52.596;13.320;2023-04-24T04:16:32;12.70;99.90
16867;DHT22;8550;52.596;13.320;2023-04-24T04:21:34;12.70;99.90
16867;DHT22;8550;52.596;13.320;2023-04-24T04:26:38;12.70;99.90
16867;DHT22;8550;52.596;13.320;2023-04-24T04:31:41;12.80;99.90
16867;DHT22;8550;52.596;13.320;2023-04-24T04:36:43;12.70;99.90
16867;DHT22;8550;52.596;13.320;2023-04-24T04:41:48;12.60;99.90
16867;DHT22;8550;52.596;13.320;2023-04-24T04:46:50;12.60;99.90
16867;DHT22;8550;52.596;13.320;2023-04-24T04:51:56;12.50;99.90
16867;DHT22;8550;52.596;13.320;2023-04-24T04:57:00;12.60;99.90
16867;DHT22;8550;52.596;13.320;2023-04-24T05:02:02;12.80;99.90
16867;DHT22;8550;52.596;13.320;2023-04-24T05:07:04;12.80;99.90
16867;DHT22;8550;52.596;13.320;2023-04-24T05:12:08;12.80;99.90
16867;DHT22;8550;52.596;13.320;2023-04-24T05:17:10;12.90;99.90
16867;DHT22;8550;52.596;13.320;2023-04-24T05:22:12;13.00;99.90
16867;DHT22;8550;52.596;13.320;2023-04-24T05:27:15;12.90;99.90
16867;DHT22;8550;52.596;13.320;2023-04-24T05:32:17;13.00;99.90
16867;DHT22;8550;52.596;13.320;2023-04-24T05:37:19;13.10;99.90
16867;DHT22;8550;52.596;13.320;2023-04-24T05:42:22;13.10;99.90
16867;DHT22;8550;52.596;13.320;2023-04-24T05:47:24;13.10;99.90
16867;DHT22;8550;52.596;13.320;2023-04-24T05:52:26;13.10;99.90
16867;DHT22;8550;52.596;13.320;2023-04-24T05:57:30;13.10;99.90
16867;DHT22;8550;52.596;13.320;2023-04-24T06:02:31;13.20;99.90
16867;DHT22;8550;52.596;13.320;2023-04-24T06:07:33;13.30;99.90
16867;DHT22;8550;52.596;13.320;2023-04-24T06:12:37;13.50;99.90
16867;DHT22;8550;52.596;13.320;2023-04-24T06:17:39;13.70;99.90
16867;DHT22;8550;52.596;13.320;2023-04-24T06:22:41;13.80;99.90
16867;DHT22;8550;52.596;13.320;2023-04-24T06:27:44;14.00;99.90
16867;DHT22;8550;52.596;13.320;2023-04-24T06:32:46;14.10;99.90
16867;DHT22;8550;52.596;13.320;2023-04-24T06:37:48;14.40;99.90
16867;DHT22;8550;52.596;13.320;2023-04-24T06:42:52;14.50;99.90
16867;DHT22;8550;52.596;13.320;2023-04-24T06:47:54;14.60;99.90
16867;DHT22;8550;52.596;13.320;2023-04-24T06:52:56;14.80;99.90
16867;DHT22;8550;52.596;13.320;2023-04-24T06:57:59;15.00;99.90
16867;DHT22;8550;52.596;13.320;2023-04-24T07:03:01;15.10;99.90
16867;DHT22;8550;52.596;13.320;2023-04-24T07:08:03;15.20;99.90
16867;DHT22;8550;52.596;13.320;2023-04-24T07:13:06;15.00;99.90
16867;DHT22;8550;52.596;13.320;2023-04-24T07:18:09;14.90;99.90
16867;DHT22;8550;52.596;13.320;2023-04-24T07:23:11;15.10;99.90
16867;DHT22;8550;52.596;13.320;2023-04-24T07:28:14;15.20;99.90
16867;DHT22;8550;52.596;13.320;2023-04-24T07:33:18;15.50;99.90
16867;DHT22;8550;52.596;13.320;2023-04-24T07:38:20;15.60;99.90
16867;DHT22;8550;52.596;13.320;2023-04-24T07:43:24;15.80;99.90
16867;DHT22;8550;52.596;13.320;2023-04-24T07:48:26;15.90;99.90
16867;DHT22;8550;52.596;13.320;2023-04-24T07:53:27;16.10;99.90
16867;DHT22;8550;52.596;13.320;2023-04-24T07:58:31;16.40;99.90
16867;DHT22;8550;52.596;13.320;2023-04-24T08:03:33;16.50;99.90
16867;DHT22;8550;52.596;13.320;2023-04-24T08:08:35;16.60;99.90
16867;DHT22;8550;52.596;13.320;2023-04-24T08:13:38;16.70;99.90
16867;DHT22;8550;52.596;13.320;2023-04-24T08:18:40;17.10;99.90
16867;DHT22;8550;52.596;13.320;2023-04-24T08:23:45;17.30;99.90
16867;DHT22;8550;52.596;13.320;2023-04-24T08:28:52;17.40;99.50
16867;DHT22;8550;52.596;13.320;2023-04-24T08:33:54;17.50;99.60
16867;DHT22;8550;52.596;13.320;2023-04-24T08:38:55;17.30;99.90
16867;DHT22;8550;52.596;13.320;2023-04-24T08:43:59;17.10;99.90
16867;DHT22;8550;52.596;13.320;2023-04-24T08:49:03;17.60;99.90
16867;DHT22;8550;52.596;13.320;2023-04-24T08:54:06;17.80;98.30
16867;DHT22;8550;52.596;13.320;2023-04-24T08:59:10;18.00;97.40
16867;DHT22;8550;52.596;13.320;2023-04-24T09:04:12;18.30;97.10
16867;DHT22;8550;52.596;13.320;2023-04-24T09:09:38;18.30;95.00
16867;DHT22;8550;52.596;13.320;2023-04-24T09:14:42;17.90;97.00
16867;DHT22;8550;52.596;13.320;2023-04-24T09:19:45;17.80;96.60
16867;DHT22;8550;52.596;13.320;2023-04-24T09:24:47;17.50;97.30
16867;DHT22;8550;52.596;13.320;2023-04-24T09:29:57;17.50;98.20
16867;DHT22;8550;52.596;13.320;2023-04-24T09:35:08;17.90;97.70
16867;DHT22;8550;52.596;13.320;2023-04-24T09:40:15;18.60;96.10
16867;DHT22;8550;52.596;13.320;2023-04-24T09:45:18;18.50;96.20
16867;DHT22;8550;52.596;13.320;2023-04-24T09:50:21;18.30;96.50
16867;DHT22;8550;52.596;13.320;2023-04-24T09:55:23;17.90;96.90
16867;DHT22;8550;52.596;13.320;2023-04-24T10:00:28;17.80;97.80
16867;DHT22;8550;52.596;13.320;2023-04-24T10:05:32;18.00;98.40
16867;DHT22;8550;52.596;13.320;2023-04-24T10:10:37;18.00;98.60
16867;DHT22;8550;52.596;13.320;2023-04-24T10:15:41;17.80;98.80
16867;DHT22;8550;52.596;13.320;2023-04-24T10:20:43;18.00;97.80
16867;DHT22;8550;52.596;13.320;2023-04-24T10:25:46;18.30;97.50
16867;DHT22;8550;52.596;13.320;2023-04-24T10:30:51;18.10;98.50
16867;DHT22;8550;52.596;13.320;2023-04-24T10:35:55;18.00;97.90
16867;DHT22;8550;52.596;13.320;2023-04-24T10:41:07;17.80;98.10
16867;DHT22;8550;52.596;13.320;2023-04-24T10:46:16;17.40;98.90
16867;DHT22;8550;52.596;13.320;2023-04-24T10:51:22;17.10;99.00
16867;DHT22;8550;52.596;13.320;2023-04-24T10:56:24;17.00;99.90
16867;DHT22;8550;52.596;13.320;2023-04-24T11:01:28;16.90;99.90
16867;DHT22;8550;52.596;13.320;2023-04-24T11:06:31;16.90;99.90
16867;DHT22;8550;52.596;13.320;2023-04-24T11:11:35;17.00;99.90
16867;DHT22;8550;52.596;13.320;2023-04-24T11:16:44;17.50;99.90
16867;DHT22;8550;52.596;13.320;2023-04-24T11:21:48;17.70;99.90
16867;DHT22;8550;52.596;13.320;2023-04-24T11:26:57;17.90;99.90
16867;DHT22;8550;52.596;13.320;2023-04-24T11:32:18;18.70;99.60
16867;DHT22;8550;52.596;13.320;2023-04-24T11:37:21;19.60;96.10
16867;DHT22;8550;52.596;13.320;2023-04-24T11:42:23;19.60;95.90
16867;DHT22;8550;52.596;13.320;2023-04-24T11:47:31;19.40;96.20
16867;DHT22;8550;52.596;13.320;2023-04-24T11:52:37;18.90;96.90
16867;DHT22;8550;52.596;13.320;2023-04-24T11:57:39;18.60;98.00
16867;DHT22;8550;52.596;13.320;2023-04-24T12:02:46;21.30;93.60
16867;DHT22;8550;52.596;13.320;2023-04-24T12:07:49;21.80;90.90
16867;DHT22;8550;52.596;13.320;2023-04-24T12:12:51;22.30;87.20
16867;DHT22;8550;52.596;13.320;2023-04-24T12:17:56;23.90;87.30
16867;DHT22;8550;52.596;13.320;2023-04-24T12:22:59;25.90;77.00
16867;DHT22;8550;52.596;13.320;2023-04-24T12:28:10;23.70;81.90
16867;DHT22;8550;52.596;13.320;2023-04-24T12:33:17;21.60;90.20
16867;DHT22;8550;52.596;13.320;2023-04-24T12:38:22;20.70;91.40
16867;DHT22;8550;52.596;13.320;2023-04-24T12:43:25;19.70;93.30
16867;DHT22;8550;52.596;13.320;2023-04-24T12:48:28;18.80;92.90
16867;DHT22;8550;52.596;13.320;2023-04-24T12:53:30;17.90;90.20
16867;DHT22;8550;52.596;13.320;2023-04-24T12:58:32;17.70;90.60
16867;DHT22;8550;52.596;13.320;2023-04-24T13:03:36;17.80;91.60
16867;DHT22;8550;52.596;13.320;2023-04-24T13:08:37;18.90;90.40
16867;DHT22;8550;52.596;13.320;2023-04-24T13:13:39;20.50;84.80
16867;DHT22;8550;52.596;13.320;2023-04-24T13:18:43;21.20;81.10
16867;DHT22;8550;52.596;13.320;2023-04-24T13:23:44;21.30;80.70
16867;DHT22;8550;52.596;13.320;2023-04-24T13:28:46;20.90;82.20
16867;DHT22;8550;52.596;13.320;2023-04-24T13:33:50;18.90;92.00
16867;DHT22;8550;52.596;13.320;2023-04-24T13:38:51;21.00;88.80
16867;DHT22;8550;52.596;13.320;2023-04-24T13:43:53;23.00;81.20
16867;DHT22;8550;52.596;13.320;2023-04-24T13:48:57;23.70;73.50
16867;DHT22;8550;52.596;13.320;2023-04-24T13:53:59;25.00;64.40
16867;DHT22;8550;52.596;13.320;2023-04-24T13:59:01;21.80;70.90
16867;DHT22;8550;52.596;13.320;2023-04-24T14:04:04;19.60;73.80
16867;DHT22;8550;52.596;13.320;2023-04-24T14:09:06;19.40;78.60
16867;DHT22;8550;52.596;13.320;2023-04-24T14:14:08;19.80;77.30
16867;DHT22;8550;52.596;13.320;2023-04-24T14:19:12;21.90;65.50
16867;DHT22;8550;52.596;13.320;2023-04-24T14:24:13;22.90;62.50
16867;DHT22;8550;52.596;13.320;2023-04-24T14:29:16;24.30;55.10
16867;DHT22;8550;52.596;13.320;2023-04-24T14:34:19;22.40;54.40
16867;DHT22;8550;52.596;13.320;2023-04-24T14:39:21;20.90;56.60
16867;DHT22;8550;52.596;13.320;2023-04-24T14:44:23;19.50;59.20
16867;DHT22;8550;52.596;13.320;2023-04-24T14:49:26;19.10;60.70
16867;DHT22;8550;52.596;13.320;2023-04-24T14:54:28;19.50;61.50
16867;DHT22;8550;52.596;13.320;2023-04-24T14:59:31;19.50;61.30
16867;DHT22;8550;52.596;13.320;2023-04-24T18:52:17;11.60;99.90
16867;DHT22;8550;52.596;13.320;2023-04-24T18:57:20;11.20;99.90
16867;DHT22;8550;52.596;13.320;2023-04-24T19:02:22;11.10;99.90
16867;DHT22;8550;52.596;13.320;2023-04-24T19:07:25;11.00;99.90
16867;DHT22;8550;52.596;13.320;2023-04-24T19:12:28;10.80;99.90
16867;DHT22;8550;52.596;13.320;2023-04-24T19:17:30;10.70;99.90
16867;DHT22;8550;52.596;13.320;2023-04-24T19:22:34;10.70;99.90
16867;DHT22;8550;52.596;13.320;2023-04-24T19:27:36;10.50;99.90
16867;DHT22;8550;52.596;13.320;2023-04-24T19:32:38;10.70;99.90
16867;DHT22;8550;52.596;13.320;2023-04-24T19:37:41;10.70;99.90
16867;DHT22;8550;52.596;13.320;2023-04-24T19:42:43;10.60;99.90
16867;DHT22;8550;52.596;13.320;2023-04-24T19:47:45;10.50;99.90
16867;DHT22;8550;52.596;13.320;2023-04-24T19:52:48;10.50;99.90
16867;DHT22;8550;52.596;13.320;2023-04-24T19:57:50;10.40;99.90
16867;DHT22;8550;52.596;13.320;2023-04-24T20:02:52;10.40;99.90
16867;DHT22;8550;52.596;13.320;2023-04-24T20:07:55;10.40;99.90
16867;DHT22;8550;52.596;13.320;2023-04-24T20:12:57;10.30;99.90
16867;DHT22;8550;52.596;13.320;2023-04-24T20:18:00;10.10;99.90
16867;DHT22;8550;52.596;13.320;2023-04-24T20:23:03;10.00;99.90
16867;DHT22;8550;52.596;13.320;2023-04-24T20:28:05;9.90;99.90
16867;DHT22;8550;52.596;13.320;2023-04-24T20:33:07;9.90;99.90
16867;DHT22;8550;52.596;13.320;2023-04-24T20:38:12;9.90;99.90
16867;DHT22;8550;52.596;13.320;2023-04-24T20:43:15;10.00;99.90
16867;DHT22;8550;52.596;13.320;2023-04-24T20:48:17;10.10;99.90
16867;DHT22;8550;52.596;13.320;2023-04-24T20:53:20;10.10;99.90
16867;DHT22;8550;52.596;13.320;2023-04-24T20:58:22;10.00;99.90
16867;DHT22;8550;52.596;13.320;2023-04-24T21:03:24;9.90;99.90
16867;DHT22;8550;52.596;13.320;2023-04-24T21:08:28;9.90;99.90
16867;DHT22;8550;52.596;13.320;2023-04-24T21:13:29;9.80;99.90
16867;DHT22;8550;52.596;13.320;2023-04-24T21:18:31;9.70;99.90
16867;DHT22;8550;52.596;13.320;2023-04-24T21:23:35;9.70;99.90
16867;DHT22;8550;52.596;13.320;2023-04-24T21:28:37;9.70;99.90
16867;DHT22;8550;52.596;13.320;2023-04-24T21:33:39;9.70;99.90
16867;DHT22;8550;52.596;13.320;2023-04-24T21:38:42;9.60;99.90
16867;DHT22;8550;52.596;13.320;2023-04-24T21:43:44;9.60;99.90
16867;DHT22;8550;52.596;13.320;2023-04-24T21:48:45;9.80;99.90
16867;DHT22;8550;52.596;13.320;2023-04-24T21:53:49;9.80;99.90
16867;DHT22;8550;52.596;13.320;2023-04-24T21:58:51;9.70;99.90
16867;DHT22;8550;52.596;13.320;2023-04-24T22:03:53;9.90;99.90
16867;DHT22;8550;52.596;13.320;2023-04-24T22:08:56;9.70;99.90
16867;DHT22;8550;52.596;13.320;2023-04-24T22:13:58;9.70;99.90
16867;DHT22;8550;52.596;13.320;2023-04-24T22:19:00;9.80;99.90
16867;DHT22;8550;52.596;13.320;2023-04-24T22:24:04;9.80;99.90
16867;DHT22;8550;52.596;13.320;2023-04-24T22:29:05;9.80;99.90
16867;DHT22;8550;52.596;13.320;2023-04-24T22:34:07;9.90;99.90
16867;DHT22;8550;52.596;13.320;2023-04-24T22:39:11;9.80;99.90
16867;DHT22;8550;52.596;13.320;2023-04-24T22:44:15;9.50;99.90
16867;DHT22;8550;52.596;13.320;2023-04-24T22:49:17;9.50;99.90
16867;DHT22;8550;52.596;13.320;2023-04-24T22:54:20;9.60;99.90
16867;DHT22;8550;52.596;13.320;2023-04-24T22:59:22;9.60;99.90
16867;DHT22;8550;52.596;13.320;2023-04-24T23:04:24;9.50;99.90
16867;DHT22;8550;52.596;13.320;2023-04-24T23:09:27;9.60;99.90
16867;DHT22;8550;52.596;13.320;2023-04-24T23:14:29;9.60;99.90
16867;DHT22;8550;52.596;13.320;2023-04-24T23:19:31;9.70;99.90
16867;DHT22;8550;52.596;13.320;2023-04-24T23:24:35;9.80;99.90
16867;DHT22;8550;52.596;13.320;2023-04-24T23:29:37;9.80;99.90
16867;DHT22;8550;52.596;13.320;2023-04-24T23:34:39;9.70;99.90
16867;DHT22;8550;52.596;13.320;2023-04-24T23:39:42;9.70;99.90
16867;DHT22;8550;52.596;13.320;2023-04-24T23:44:44;9.60;99.90
16867;DHT22;8550;52.596;13.320;2023-04-24T23:49:46;9.40;99.90
16867;DHT22;8550;52.596;13.320;2023-04-24T23:54:49;9.30;99.90
16867;DHT22;8550;52.596;13.320;2023-04-24T23:59:51;9.30;99.90
